sensor_id;sensor_type;location;lat;lon;timestamp;P1;durP1;ratioP1;P2;durP2;ratioP2
66523;SDS011;53350;52.210;5.160;2022-10-16T00:00:40;5.22;;;1.48;;
66523;SDS011;53350;52.210;5.160;2022-10-16T00:03:07;4.95;;;1.50;;
66523;SDS011;53350;52.210;5.160;2022-10-16T00:05:37;7.78;;;1.80;;
66523;SDS011;53350;52.210;5.160;2022-10-16T00:08:05;10.32;;;2.88;;
66523;SDS011;53350;52.210;5.160;2022-10-16T00:10:32;4.85;;;1.50;;
66523;SDS011;53350;52.210;5.160;2022-10-16T00:12:59;6.22;;;1.50;;
66523;SDS011;53350;52.210;5.160;2022-10-16T00:15:25;6.88;;;1.50;;
66523;SDS011;53350;52.210;5.160;2022-10-16T00:17:53;5.90;;;1.45;;
66523;SDS011;53350;52.210;5.160;2022-10-16T00:20:20;8.55;;;1.55;;
66523;SDS011;53350;52.210;5.160;2022-10-16T00:22:46;6.15;;;1.50;;
66523;SDS011;53350;52.210;5.160;2022-10-16T00:25:13;13.45;;;1.92;;
66523;SDS011;53350;52.210;5.160;2022-10-16T00:27:39;4.00;;;1.42;;
66523;SDS011;53350;52.210;5.160;2022-10-16T00:30:06;7.82;;;1.77;;
66523;SDS011;53350;52.210;5.160;2022-10-16T00:35:01;5.60;;;1.50;;
66523;SDS011;53350;52.210;5.160;2022-10-16T00:39:55;6.00;;;1.70;;
66523;SDS011;53350;52.210;5.160;2022-10-16T00:42:21;5.85;;;1.48;;
66523;SDS011;53350;52.210;5.160;2022-10-16T00:44:49;8.65;;;2.00;;
66523;SDS011;53350;52.210;5.160;2022-10-16T00:47:19;5.95;;;1.77;;
66523;SDS011;53350;52.210;5.160;2022-10-16T00:49:48;6.45;;;1.65;;
66523;SDS011;53350;52.210;5.160;2022-10-16T00:52:18;4.03;;;1.30;;
66523;SDS011;53350;52.210;5.160;2022-10-16T00:54:46;5.47;;;1.63;;
66523;SDS011;53350;52.210;5.160;2022-10-16T00:57:15;3.45;;;1.38;;
66523;SDS011;53350;52.210;5.160;2022-10-16T00:59:41;5.85;;;1.55;;
66523;SDS011;53350;52.210;5.160;2022-10-16T01:02:11;10.50;;;1.67;;
66523;SDS011;53350;52.210;5.160;2022-10-16T01:04:39;4.63;;;1.60;;
66523;SDS011;53350;52.210;5.160;2022-10-16T01:07:10;5.20;;;1.65;;
66523;SDS011;53350;52.210;5.160;2022-10-16T01:09:45;5.47;;;1.50;;
66523;SDS011;53350;52.210;5.160;2022-10-16T01:12:21;5.60;;;1.40;;
66523;SDS011;53350;52.210;5.160;2022-10-16T01:14:58;5.45;;;1.58;;
66523;SDS011;53350;52.210;5.160;2022-10-16T01:17:28;8.50;;;1.60;;
66523;SDS011;53350;52.210;5.160;2022-10-16T01:20:02;9.95;;;2.17;;
66523;SDS011;53350;52.210;5.160;2022-10-16T01:22:44;10.05;;;1.80;;
66523;SDS011;53350;52.210;5.160;2022-10-16T01:25:25;7.63;;;1.98;;
66523;SDS011;53350;52.210;5.160;2022-10-16T01:28:04;5.95;;;1.45;;
66523;SDS011;53350;52.210;5.160;2022-10-16T01:30:35;5.85;;;1.67;;
66523;SDS011;53350;52.210;5.160;2022-10-16T01:33:04;4.38;;;1.80;;
66523;SDS011;53350;52.210;5.160;2022-10-16T01:35:36;4.68;;;1.95;;
66523;SDS011;53350;52.210;5.160;2022-10-16T01:38:08;7.30;;;2.35;;
66523;SDS011;53350;52.210;5.160;2022-10-16T01:40:39;4.95;;;1.65;;
66523;SDS011;53350;52.210;5.160;2022-10-16T01:43:13;7.93;;;2.30;;
66523;SDS011;53350;52.210;5.160;2022-10-16T01:45:43;4.80;;;1.88;;
66523;SDS011;53350;52.210;5.160;2022-10-16T01:48:12;6.50;;;2.30;;
66523;SDS011;53350;52.210;5.160;2022-10-16T01:50:43;8.40;;;1.98;;
66523;SDS011;53350;52.210;5.160;2022-10-16T01:53:14;5.93;;;1.85;;
66523;SDS011;53350;52.210;5.160;2022-10-16T01:55:43;7.68;;;1.90;;
66523;SDS011;53350;52.210;5.160;2022-10-16T01:58:15;5.13;;;1.55;;
66523;SDS011;53350;52.210;5.160;2022-10-16T02:00:42;8.27;;;1.65;;
66523;SDS011;53350;52.210;5.160;2022-10-16T02:03:11;4.85;;;1.60;;
66523;SDS011;53350;52.210;5.160;2022-10-16T02:05:41;4.65;;;1.60;;
66523;SDS011;53350;52.210;5.160;2022-10-16T02:08:10;5.88;;;1.63;;
66523;SDS011;53350;52.210;5.160;2022-10-16T02:10:37;7.05;;;1.92;;
66523;SDS011;53350;52.210;5.160;2022-10-16T02:13:05;4.13;;;1.95;;
66523;SDS011;53350;52.210;5.160;2022-10-16T02:15:36;6.63;;;1.90;;
66523;SDS011;53350;52.210;5.160;2022-10-16T02:18:02;5.10;;;2.08;;
66523;SDS011;53350;52.210;5.160;2022-10-16T02:20:32;6.10;;;2.40;;
66523;SDS011;53350;52.210;5.160;2022-10-16T02:23:17;8.23;;;2.10;;
66523;SDS011;53350;52.210;5.160;2022-10-16T02:25:50;8.65;;;2.25;;
66523;SDS011;53350;52.210;5.160;2022-10-16T02:28:22;6.22;;;2.20;;
66523;SDS011;53350;52.210;5.160;2022-10-16T02:30:54;6.60;;;2.20;;
66523;SDS011;53350;52.210;5.160;2022-10-16T02:33:25;4.13;;;2.10;;
66523;SDS011;53350;52.210;5.160;2022-10-16T02:38:20;4.65;;;1.98;;
66523;SDS011;53350;52.210;5.160;2022-10-16T02:40:47;8.63;;;2.53;;
66523;SDS011;53350;52.210;5.160;2022-10-16T02:43:14;6.72;;;2.20;;
66523;SDS011;53350;52.210;5.160;2022-10-16T02:45:41;7.38;;;2.17;;
66523;SDS011;53350;52.210;5.160;2022-10-16T02:48:09;8.00;;;2.10;;
66523;SDS011;53350;52.210;5.160;2022-10-16T02:50:36;7.13;;;2.38;;
66523;SDS011;53350;52.210;5.160;2022-10-16T02:53:02;7.18;;;2.58;;
66523;SDS011;53350;52.210;5.160;2022-10-16T02:55:28;6.05;;;2.78;;
66523;SDS011;53350;52.210;5.160;2022-10-16T02:57:55;7.15;;;2.60;;
66523;SDS011;53350;52.210;5.160;2022-10-16T03:00:21;4.05;;;2.10;;
66523;SDS011;53350;52.210;5.160;2022-10-16T03:02:48;7.22;;;2.42;;
66523;SDS011;53350;52.210;5.160;2022-10-16T03:05:16;7.78;;;2.58;;
66523;SDS011;53350;52.210;5.160;2022-10-16T03:07:42;5.80;;;2.17;;
66523;SDS011;53350;52.210;5.160;2022-10-16T03:10:09;7.22;;;2.03;;
66523;SDS011;53350;52.210;5.160;2022-10-16T03:12:35;4.85;;;2.10;;
66523;SDS011;53350;52.210;5.160;2022-10-16T03:15:02;6.90;;;2.28;;
66523;SDS011;53350;52.210;5.160;2022-10-16T03:17:29;5.60;;;2.05;;
66523;SDS011;53350;52.210;5.160;2022-10-16T03:19:55;4.70;;;1.90;;
66523;SDS011;53350;52.210;5.160;2022-10-16T03:22:23;6.75;;;2.35;;
66523;SDS011;53350;52.210;5.160;2022-10-16T03:24:50;8.32;;;2.15;;
66523;SDS011;53350;52.210;5.160;2022-10-16T03:27:16;5.53;;;1.90;;
66523;SDS011;53350;52.210;5.160;2022-10-16T03:29:43;6.38;;;2.10;;
66523;SDS011;53350;52.210;5.160;2022-10-16T03:32:09;4.95;;;2.10;;
66523;SDS011;53350;52.210;5.160;2022-10-16T03:34:36;5.85;;;2.10;;
66523;SDS011;53350;52.210;5.160;2022-10-16T03:37:02;7.93;;;2.20;;
66523;SDS011;53350;52.210;5.160;2022-10-16T03:39:30;7.32;;;2.13;;
66523;SDS011;53350;52.210;5.160;2022-10-16T03:41:56;8.10;;;2.20;;
66523;SDS011;53350;52.210;5.160;2022-10-16T03:44:23;5.55;;;2.00;;
66523;SDS011;53350;52.210;5.160;2022-10-16T03:46:49;5.72;;;2.05;;
66523;SDS011;53350;52.210;5.160;2022-10-16T03:49:15;7.72;;;1.95;;
66523;SDS011;53350;52.210;5.160;2022-10-16T03:51:42;6.65;;;2.20;;
66523;SDS011;53350;52.210;5.160;2022-10-16T03:54:09;6.93;;;2.08;;
66523;SDS011;53350;52.210;5.160;2022-10-16T03:56:37;5.70;;;2.17;;
66523;SDS011;53350;52.210;5.160;2022-10-16T03:59:04;3.70;;;1.83;;
66523;SDS011;53350;52.210;5.160;2022-10-16T04:01:30;8.90;;;1.90;;
66523;SDS011;53350;52.210;5.160;2022-10-16T04:03:57;6.18;;;1.90;;
66523;SDS011;53350;52.210;5.160;2022-10-16T04:06:23;5.20;;;2.00;;
66523;SDS011;53350;52.210;5.160;2022-10-16T04:08:50;8.45;;;2.20;;
66523;SDS011;53350;52.210;5.160;2022-10-16T04:11:16;5.15;;;1.92;;
66523;SDS011;53350;52.210;5.160;2022-10-16T04:13:44;4.68;;;1.80;;
66523;SDS011;53350;52.210;5.160;2022-10-16T04:16:10;4.32;;;1.90;;
66523;SDS011;53350;52.210;5.160;2022-10-16T04:18:37;7.03;;;1.88;;
66523;SDS011;53350;52.210;5.160;2022-10-16T04:21:03;6.05;;;2.08;;
66523;SDS011;53350;52.210;5.160;2022-10-16T04:23:30;4.47;;;1.67;;
66523;SDS011;53350;52.210;5.160;2022-10-16T04:25:56;8.90;;;2.05;;
66523;SDS011;53350;52.210;5.160;2022-10-16T04:28:23;4.75;;;1.60;;
66523;SDS011;53350;52.210;5.160;2022-10-16T04:30:51;4.43;;;1.70;;
66523;SDS011;53350;52.210;5.160;2022-10-16T04:33:17;5.80;;;1.90;;
66523;SDS011;53350;52.210;5.160;2022-10-16T04:35:43;3.35;;;1.60;;
66523;SDS011;53350;52.210;5.160;2022-10-16T04:38:10;6.07;;;1.77;;
66523;SDS011;53350;52.210;5.160;2022-10-16T04:40:37;10.50;;;1.90;;
66523;SDS011;53350;52.210;5.160;2022-10-16T04:43:03;7.10;;;1.90;;
66523;SDS011;53350;52.210;5.160;2022-10-16T04:45:30;4.95;;;1.70;;
66523;SDS011;53350;52.210;5.160;2022-10-16T04:47:58;10.13;;;2.10;;
66523;SDS011;53350;52.210;5.160;2022-10-16T04:52:52;6.32;;;1.90;;
66523;SDS011;53350;52.210;5.160;2022-10-16T04:55:18;6.45;;;1.90;;
66523;SDS011;53350;52.210;5.160;2022-10-16T04:57:45;8.68;;;2.28;;
66523;SDS011;53350;52.210;5.160;2022-10-16T05:00:11;4.93;;;2.13;;
66523;SDS011;53350;52.210;5.160;2022-10-16T05:02:38;5.78;;;2.20;;
66523;SDS011;53350;52.210;5.160;2022-10-16T05:05:06;5.78;;;2.22;;
66523;SDS011;53350;52.210;5.160;2022-10-16T05:09:59;5.22;;;2.00;;
66523;SDS011;53350;52.210;5.160;2022-10-16T05:12:26;5.93;;;1.90;;
66523;SDS011;53350;52.210;5.160;2022-10-16T05:14:52;5.75;;;2.10;;
66523;SDS011;53350;52.210;5.160;2022-10-16T05:17:28;5.20;;;1.85;;
66523;SDS011;53350;52.210;5.160;2022-10-16T05:19:55;5.88;;;1.80;;
66523;SDS011;53350;52.210;5.160;2022-10-16T05:22:22;4.35;;;1.92;;
66523;SDS011;53350;52.210;5.160;2022-10-16T05:24:54;7.40;;;2.25;;
66523;SDS011;53350;52.210;5.160;2022-10-16T05:27:24;6.97;;;1.85;;
66523;SDS011;53350;52.210;5.160;2022-10-16T05:29:51;4.28;;;1.92;;
66523;SDS011;53350;52.210;5.160;2022-10-16T05:32:21;6.47;;;2.00;;
66523;SDS011;53350;52.210;5.160;2022-10-16T05:34:47;8.52;;;2.15;;
66523;SDS011;53350;52.210;5.160;2022-10-16T05:37:45;5.70;;;1.88;;
66523;SDS011;53350;52.210;5.160;2022-10-16T05:40:19;4.40;;;1.70;;
66523;SDS011;53350;52.210;5.160;2022-10-16T05:42:48;5.35;;;1.73;;
66523;SDS011;53350;52.210;5.160;2022-10-16T05:45:15;6.25;;;2.10;;
66523;SDS011;53350;52.210;5.160;2022-10-16T05:47:47;5.63;;;1.83;;
66523;SDS011;53350;52.210;5.160;2022-10-16T05:50:18;7.55;;;2.17;;
66523;SDS011;53350;52.210;5.160;2022-10-16T05:52:52;3.80;;;1.70;;
66523;SDS011;53350;52.210;5.160;2022-10-16T05:55:18;5.65;;;1.88;;
66523;SDS011;53350;52.210;5.160;2022-10-16T05:57:58;6.82;;;2.25;;
66523;SDS011;53350;52.210;5.160;2022-10-16T06:00:25;5.20;;;1.90;;
66523;SDS011;53350;52.210;5.160;2022-10-16T06:03:19;9.18;;;2.25;;
66523;SDS011;53350;52.210;5.160;2022-10-16T06:05:46;6.47;;;2.42;;
66523;SDS011;53350;52.210;5.160;2022-10-16T06:08:20;4.50;;;1.90;;
66523;SDS011;53350;52.210;5.160;2022-10-16T06:13:51;4.32;;;2.33;;
66523;SDS011;53350;52.210;5.160;2022-10-16T06:16:27;8.63;;;2.70;;
66523;SDS011;53350;52.210;5.160;2022-10-16T06:19:01;11.75;;;2.90;;
66523;SDS011;53350;52.210;5.160;2022-10-16T06:21:31;5.95;;;2.75;;
66523;SDS011;53350;52.210;5.160;2022-10-16T06:26:49;8.13;;;2.80;;
66523;SDS011;53350;52.210;5.160;2022-10-16T06:29:19;8.45;;;2.90;;
66523;SDS011;53350;52.210;5.160;2022-10-16T06:31:45;7.18;;;2.80;;
66523;SDS011;53350;52.210;5.160;2022-10-16T06:34:19;7.70;;;2.70;;
66523;SDS011;53350;52.210;5.160;2022-10-16T06:36:53;6.03;;;2.78;;
66523;SDS011;53350;52.210;5.160;2022-10-16T06:39:21;12.48;;;2.78;;
66523;SDS011;53350;52.210;5.160;2022-10-16T06:41:52;10.63;;;4.05;;
66523;SDS011;53350;52.210;5.160;2022-10-16T06:44:18;6.60;;;2.90;;
66523;SDS011;53350;52.210;5.160;2022-10-16T06:46:51;6.47;;;2.90;;
66523;SDS011;53350;52.210;5.160;2022-10-16T06:49:20;8.23;;;2.80;;
66523;SDS011;53350;52.210;5.160;2022-10-16T06:52:07;9.65;;;2.75;;
66523;SDS011;53350;52.210;5.160;2022-10-16T06:54:35;8.43;;;2.70;;
66523;SDS011;53350;52.210;5.160;2022-10-16T06:57:09;10.52;;;2.80;;
66523;SDS011;53350;52.210;5.160;2022-10-16T06:59:41;10.10;;;2.92;;
66523;SDS011;53350;52.210;5.160;2022-10-16T07:02:10;7.97;;;2.72;;
66523;SDS011;53350;52.210;5.160;2022-10-16T07:04:39;8.15;;;2.30;;
66523;SDS011;53350;52.210;5.160;2022-10-16T07:07:24;6.22;;;2.28;;
66523;SDS011;53350;52.210;5.160;2022-10-16T07:12:39;8.52;;;2.22;;
66523;SDS011;53350;52.210;5.160;2022-10-16T07:15:08;8.18;;;2.08;;
66523;SDS011;53350;52.210;5.160;2022-10-16T07:17:39;6.55;;;2.33;;
66523;SDS011;53350;52.210;5.160;2022-10-16T07:20:22;8.70;;;2.00;;
66523;SDS011;53350;52.210;5.160;2022-10-16T07:22:52;8.85;;;1.98;;
66523;SDS011;53350;52.210;5.160;2022-10-16T07:25:20;8.10;;;1.85;;
66523;SDS011;53350;52.210;5.160;2022-10-16T07:27:51;5.18;;;1.38;;
66523;SDS011;53350;52.210;5.160;2022-10-16T07:30:48;8.55;;;1.98;;
66523;SDS011;53350;52.210;5.160;2022-10-16T07:33:20;5.78;;;1.67;;
66523;SDS011;53350;52.210;5.160;2022-10-16T07:36:01;5.22;;;1.48;;
66523;SDS011;53350;52.210;5.160;2022-10-16T07:38:45;7.70;;;1.70;;
66523;SDS011;53350;52.210;5.160;2022-10-16T07:46:57;7.40;;;1.50;;
66523;SDS011;53350;52.210;5.160;2022-10-16T07:49:29;10.43;;;2.42;;
66523;SDS011;53350;52.210;5.160;2022-10-16T07:51:56;6.45;;;1.90;;
66523;SDS011;53350;52.210;5.160;2022-10-16T07:54:30;10.57;;;1.70;;
66523;SDS011;53350;52.210;5.160;2022-10-16T07:57:03;9.77;;;1.95;;
66523;SDS011;53350;52.210;5.160;2022-10-16T07:59:32;8.68;;;1.80;;
66523;SDS011;53350;52.210;5.160;2022-10-16T08:02:02;13.45;;;1.75;;
66523;SDS011;53350;52.210;5.160;2022-10-16T08:04:36;7.63;;;1.52;;
66523;SDS011;53350;52.210;5.160;2022-10-16T08:07:06;8.00;;;2.30;;
66523;SDS011;53350;52.210;5.160;2022-10-16T08:09:38;6.28;;;1.98;;
66523;SDS011;53350;52.210;5.160;2022-10-16T08:12:07;4.38;;;1.40;;
66523;SDS011;53350;52.210;5.160;2022-10-16T08:14:39;8.68;;;1.98;;
66523;SDS011;53350;52.210;5.160;2022-10-16T08:17:06;7.93;;;2.40;;
66523;SDS011;53350;52.210;5.160;2022-10-16T08:19:33;6.13;;;2.10;;
66523;SDS011;53350;52.210;5.160;2022-10-16T08:22:00;8.27;;;2.10;;
66523;SDS011;53350;52.210;5.160;2022-10-16T08:24:27;8.93;;;2.37;;
66523;SDS011;53350;52.210;5.160;2022-10-16T08:27:01;9.73;;;1.90;;
66523;SDS011;53350;52.210;5.160;2022-10-16T08:32:10;8.25;;;2.40;;
66523;SDS011;53350;52.210;5.160;2022-10-16T08:34:45;7.78;;;1.85;;
66523;SDS011;53350;52.210;5.160;2022-10-16T08:37:14;5.47;;;2.03;;
66523;SDS011;53350;52.210;5.160;2022-10-16T08:40:05;8.48;;;2.00;;
66523;SDS011;53350;52.210;5.160;2022-10-16T08:42:53;8.15;;;1.92;;
66523;SDS011;53350;52.210;5.160;2022-10-16T08:49:01;11.68;;;2.22;;
66523;SDS011;53350;52.210;5.160;2022-10-16T08:51:31;8.68;;;1.80;;
66523;SDS011;53350;52.210;5.160;2022-10-16T08:54:15;12.30;;;2.38;;
66523;SDS011;53350;52.210;5.160;2022-10-16T08:56:56;7.65;;;1.88;;
66523;SDS011;53350;52.210;5.160;2022-10-16T08:59:37;11.07;;;2.47;;
66523;SDS011;53350;52.210;5.160;2022-10-16T09:02:18;7.57;;;1.70;;
66523;SDS011;53350;52.210;5.160;2022-10-16T09:04:55;11.10;;;1.90;;
66523;SDS011;53350;52.210;5.160;2022-10-16T09:07:53;11.52;;;1.63;;
66523;SDS011;53350;52.210;5.160;2022-10-16T09:10:35;7.20;;;1.70;;
66523;SDS011;53350;52.210;5.160;2022-10-16T09:13:17;10.88;;;2.00;;
66523;SDS011;53350;52.210;5.160;2022-10-16T09:16:01;10.32;;;1.95;;
66523;SDS011;53350;52.210;5.160;2022-10-16T09:19:09;6.38;;;1.50;;
66523;SDS011;53350;52.210;5.160;2022-10-16T09:21:51;10.90;;;1.63;;
66523;SDS011;53350;52.210;5.160;2022-10-16T09:24:26;10.73;;;1.63;;
66523;SDS011;53350;52.210;5.160;2022-10-16T09:26:53;7.60;;;1.60;;
66523;SDS011;53350;52.210;5.160;2022-10-16T09:29:27;8.18;;;1.88;;
66523;SDS011;53350;52.210;5.160;2022-10-16T09:31:54;12.70;;;2.08;;
66523;SDS011;53350;52.210;5.160;2022-10-16T09:37:45;9.30;;;1.73;;
66523;SDS011;53350;52.210;5.160;2022-10-16T09:40:28;10.18;;;2.42;;
66523;SDS011;53350;52.210;5.160;2022-10-16T09:43:12;10.27;;;1.92;;
66523;SDS011;53350;52.210;5.160;2022-10-16T09:46:07;13.80;;;2.22;;
66523;SDS011;53350;52.210;5.160;2022-10-16T09:48:36;10.73;;;1.83;;
66523;SDS011;53350;52.210;5.160;2022-10-16T09:51:27;12.27;;;2.08;;
66523;SDS011;53350;52.210;5.160;2022-10-16T09:54:16;12.82;;;3.17;;
66523;SDS011;53350;52.210;5.160;2022-10-16T09:57:10;11.10;;;1.77;;
66523;SDS011;53350;52.210;5.160;2022-10-16T09:59:52;9.43;;;1.70;;
66523;SDS011;53350;52.210;5.160;2022-10-16T10:02:28;10.35;;;2.08;;
66523;SDS011;53350;52.210;5.160;2022-10-16T10:05:00;12.60;;;2.10;;
66523;SDS011;53350;52.210;5.160;2022-10-16T10:07:42;9.27;;;2.15;;
66523;SDS011;53350;52.210;5.160;2022-10-16T10:10:21;15.80;;;2.38;;
66523;SDS011;53350;52.210;5.160;2022-10-16T10:12:58;14.27;;;1.90;;
66523;SDS011;53350;52.210;5.160;2022-10-16T10:15:25;14.25;;;2.42;;
66523;SDS011;53350;52.210;5.160;2022-10-16T10:18:00;8.65;;;1.90;;
66523;SDS011;53350;52.210;5.160;2022-10-16T10:20:28;14.48;;;2.42;;
66523;SDS011;53350;52.210;5.160;2022-10-16T10:23:19;13.77;;;2.65;;
66523;SDS011;53350;52.210;5.160;2022-10-16T10:26:11;13.70;;;2.28;;
66523;SDS011;53350;52.210;5.160;2022-10-16T10:28:51;14.32;;;3.10;;
66523;SDS011;53350;52.210;5.160;2022-10-16T10:31:51;7.70;;;2.00;;
66523;SDS011;53350;52.210;5.160;2022-10-16T10:35:01;14.80;;;2.05;;
66523;SDS011;53350;52.210;5.160;2022-10-16T10:37:43;13.55;;;2.88;;
66523;SDS011;53350;52.210;5.160;2022-10-16T10:40:49;14.27;;;2.67;;
66523;SDS011;53350;52.210;5.160;2022-10-16T10:43:39;13.93;;;2.38;;
66523;SDS011;53350;52.210;5.160;2022-10-16T10:46:26;9.73;;;1.83;;
66523;SDS011;53350;52.210;5.160;2022-10-16T10:49:19;9.50;;;1.80;;
66523;SDS011;53350;52.210;5.160;2022-10-16T10:52:27;14.23;;;2.63;;
66523;SDS011;53350;52.210;5.160;2022-10-16T10:55:37;10.10;;;2.47;;
66523;SDS011;53350;52.210;5.160;2022-10-16T10:58:24;13.40;;;2.08;;
66523;SDS011;53350;52.210;5.160;2022-10-16T11:01:13;20.15;;;3.10;;
66523;SDS011;53350;52.210;5.160;2022-10-16T11:06:54;10.73;;;2.58;;
66523;SDS011;53350;52.210;5.160;2022-10-16T11:09:43;14.95;;;2.70;;
66523;SDS011;53350;52.210;5.160;2022-10-16T11:12:27;13.65;;;2.35;;
66523;SDS011;53350;52.210;5.160;2022-10-16T11:15:04;9.98;;;2.33;;
66523;SDS011;53350;52.210;5.160;2022-10-16T11:17:55;9.65;;;1.70;;
66523;SDS011;53350;52.210;5.160;2022-10-16T11:20:41;11.07;;;2.03;;
66523;SDS011;53350;52.210;5.160;2022-10-16T11:23:17;13.27;;;1.75;;
66523;SDS011;53350;52.210;5.160;2022-10-16T11:25:53;7.68;;;1.67;;
66523;SDS011;53350;52.210;5.160;2022-10-16T11:28:25;9.48;;;1.70;;
66523;SDS011;53350;52.210;5.160;2022-10-16T11:34:01;15.93;;;2.92;;
66523;SDS011;53350;52.210;5.160;2022-10-16T11:36:40;14.13;;;2.33;;
66523;SDS011;53350;52.210;5.160;2022-10-16T11:39:25;10.15;;;1.80;;
66523;SDS011;53350;52.210;5.160;2022-10-16T11:42:11;10.85;;;1.75;;
66523;SDS011;53350;52.210;5.160;2022-10-16T11:45:13;7.72;;;1.55;;
66523;SDS011;53350;52.210;5.160;2022-10-16T11:47:58;11.70;;;2.17;;
66523;SDS011;53350;52.210;5.160;2022-10-16T11:50:46;10.82;;;2.20;;
66523;SDS011;53350;52.210;5.160;2022-10-16T11:53:30;10.70;;;2.00;;
66523;SDS011;53350;52.210;5.160;2022-10-16T11:56:07;10.05;;;1.85;;
66523;SDS011;53350;52.210;5.160;2022-10-16T11:58:54;9.52;;;1.98;;
66523;SDS011;53350;52.210;5.160;2022-10-16T12:01:31;9.82;;;2.05;;
66523;SDS011;53350;52.210;5.160;2022-10-16T12:07:17;10.02;;;1.77;;
66523;SDS011;53350;52.210;5.160;2022-10-16T12:09:52;10.98;;;1.90;;
66523;SDS011;53350;52.210;5.160;2022-10-16T12:12:26;11.13;;;2.38;;
66523;SDS011;53350;52.210;5.160;2022-10-16T12:15:18;11.18;;;1.75;;
66523;SDS011;53350;52.210;5.160;2022-10-16T12:17:54;6.30;;;1.52;;
66523;SDS011;53350;52.210;5.160;2022-10-16T12:23:18;12.90;;;1.92;;
66523;SDS011;53350;52.210;5.160;2022-10-16T12:25:53;10.00;;;1.70;;
66523;SDS011;53350;52.210;5.160;2022-10-16T12:28:30;17.17;;;2.00;;
66523;SDS011;53350;52.210;5.160;2022-10-16T12:31:04;15.60;;;2.38;;
66523;SDS011;53350;52.210;5.160;2022-10-16T12:33:56;14.02;;;2.13;;
66523;SDS011;53350;52.210;5.160;2022-10-16T12:36:34;12.60;;;1.98;;
66523;SDS011;53350;52.210;5.160;2022-10-16T12:39:16;13.95;;;2.08;;
66523;SDS011;53350;52.210;5.160;2022-10-16T12:42:02;13.05;;;2.13;;
66523;SDS011;53350;52.210;5.160;2022-10-16T12:45:23;12.02;;;2.33;;
66523;SDS011;53350;52.210;5.160;2022-10-16T12:48:02;11.32;;;1.75;;
66523;SDS011;53350;52.210;5.160;2022-10-16T12:50:50;13.63;;;1.83;;
66523;SDS011;53350;52.210;5.160;2022-10-16T12:53:19;10.85;;;1.88;;
66523;SDS011;53350;52.210;5.160;2022-10-16T12:56:01;11.20;;;2.00;;
66523;SDS011;53350;52.210;5.160;2022-10-16T12:58:59;12.30;;;2.28;;
66523;SDS011;53350;52.210;5.160;2022-10-16T13:01:41;13.10;;;1.80;;
66523;SDS011;53350;52.210;5.160;2022-10-16T13:04:34;13.30;;;1.98;;
66523;SDS011;53350;52.210;5.160;2022-10-16T13:07:18;11.82;;;1.88;;
66523;SDS011;53350;52.210;5.160;2022-10-16T13:10:06;8.65;;;2.15;;
66523;SDS011;53350;52.210;5.160;2022-10-16T13:12:56;9.25;;;1.90;;
66523;SDS011;53350;52.210;5.160;2022-10-16T13:19:00;12.13;;;2.75;;
66523;SDS011;53350;52.210;5.160;2022-10-16T13:21:48;8.07;;;1.50;;
66523;SDS011;53350;52.210;5.160;2022-10-16T13:24:42;15.77;;;2.00;;
66523;SDS011;53350;52.210;5.160;2022-10-16T13:27:34;12.75;;;2.63;;
66523;SDS011;53350;52.210;5.160;2022-10-16T13:30:11;14.30;;;2.65;;
66523;SDS011;53350;52.210;5.160;2022-10-16T13:32:48;14.95;;;4.60;;
66523;SDS011;53350;52.210;5.160;2022-10-16T13:35:19;14.73;;;2.90;;
66523;SDS011;53350;52.210;5.160;2022-10-16T13:38:02;14.50;;;2.25;;
66523;SDS011;53350;52.210;5.160;2022-10-16T13:43:39;8.77;;;2.03;;
66523;SDS011;53350;52.210;5.160;2022-10-16T13:46:21;16.33;;;2.35;;
66523;SDS011;53350;52.210;5.160;2022-10-16T13:49:12;11.20;;;1.92;;
66523;SDS011;53350;52.210;5.160;2022-10-16T13:51:54;11.18;;;2.13;;
66523;SDS011;53350;52.210;5.160;2022-10-16T13:54:28;10.02;;;2.03;;
66523;SDS011;53350;52.210;5.160;2022-10-16T13:57:04;13.35;;;2.58;;
66523;SDS011;53350;52.210;5.160;2022-10-16T13:59:46;17.67;;;2.40;;
66523;SDS011;53350;52.210;5.160;2022-10-16T14:02:22;14.35;;;2.03;;
66523;SDS011;53350;52.210;5.160;2022-10-16T14:05:00;9.60;;;1.80;;
66523;SDS011;53350;52.210;5.160;2022-10-16T14:07:47;11.30;;;1.90;;
66523;SDS011;53350;52.210;5.160;2022-10-16T14:10:23;11.25;;;1.92;;
66523;SDS011;53350;52.210;5.160;2022-10-16T14:13:04;10.82;;;2.00;;
66523;SDS011;53350;52.210;5.160;2022-10-16T14:15:55;8.90;;;2.03;;
66523;SDS011;53350;52.210;5.160;2022-10-16T14:18:27;17.20;;;2.10;;
66523;SDS011;53350;52.210;5.160;2022-10-16T14:21:22;15.05;;;2.25;;
66523;SDS011;53350;52.210;5.160;2022-10-16T14:24:11;11.57;;;1.75;;
66523;SDS011;53350;52.210;5.160;2022-10-16T14:26:44;14.60;;;2.15;;
66523;SDS011;53350;52.210;5.160;2022-10-16T14:29:17;14.15;;;2.30;;
66523;SDS011;53350;52.210;5.160;2022-10-16T14:32:22;13.63;;;2.30;;
66523;SDS011;53350;52.210;5.160;2022-10-16T14:34:59;11.20;;;2.10;;
66523;SDS011;53350;52.210;5.160;2022-10-16T14:37:30;16.63;;;3.40;;
66523;SDS011;53350;52.210;5.160;2022-10-16T14:39:58;13.82;;;3.00;;
66523;SDS011;53350;52.210;5.160;2022-10-16T14:42:28;14.48;;;4.03;;
66523;SDS011;53350;52.210;5.160;2022-10-16T14:45:07;10.88;;;2.60;;
66523;SDS011;53350;52.210;5.160;2022-10-16T14:48:02;15.77;;;2.42;;
66523;SDS011;53350;52.210;5.160;2022-10-16T14:51:08;15.57;;;3.17;;
66523;SDS011;53350;52.210;5.160;2022-10-16T14:53:44;13.40;;;2.33;;
66523;SDS011;53350;52.210;5.160;2022-10-16T14:56:14;11.57;;;2.50;;
66523;SDS011;53350;52.210;5.160;2022-10-16T14:58:51;9.52;;;2.33;;
66523;SDS011;53350;52.210;5.160;2022-10-16T15:01:25;13.68;;;2.20;;
66523;SDS011;53350;52.210;5.160;2022-10-16T15:03:56;9.60;;;2.13;;
66523;SDS011;53350;52.210;5.160;2022-10-16T15:06:31;12.50;;;1.98;;
66523;SDS011;53350;52.210;5.160;2022-10-16T15:08:57;11.73;;;2.03;;
66523;SDS011;53350;52.210;5.160;2022-10-16T15:11:24;15.48;;;2.40;;
66523;SDS011;53350;52.210;5.160;2022-10-16T15:13:50;10.57;;;2.00;;
66523;SDS011;53350;52.210;5.160;2022-10-16T15:16:17;17.48;;;2.10;;
66523;SDS011;53350;52.210;5.160;2022-10-16T15:18:43;11.00;;;2.20;;
66523;SDS011;53350;52.210;5.160;2022-10-16T15:21:12;10.93;;;2.25;;
66523;SDS011;53350;52.210;5.160;2022-10-16T15:23:49;10.70;;;2.78;;
66523;SDS011;53350;52.210;5.160;2022-10-16T15:26:16;67.78;;;36.85;;
66523;SDS011;53350;52.210;5.160;2022-10-16T15:28:42;90.43;;;44.90;;
66523;SDS011;53350;52.210;5.160;2022-10-16T15:31:09;349.15;;;173.77;;
66523;SDS011;53350;52.210;5.160;2022-10-16T15:33:35;180.75;;;83.60;;
66523;SDS011;53350;52.210;5.160;2022-10-16T15:36:02;72.18;;;38.00;;
66523;SDS011;53350;52.210;5.160;2022-10-16T15:38:30;31.35;;;14.40;;
66523;SDS011;53350;52.210;5.160;2022-10-16T15:40:57;17.63;;;5.22;;
66523;SDS011;53350;52.210;5.160;2022-10-16T15:43:23;19.10;;;5.70;;
66523;SDS011;53350;52.210;5.160;2022-10-16T15:45:58;32.78;;;12.52;;
66523;SDS011;53350;52.210;5.160;2022-10-16T15:48:26;17.60;;;5.60;;
66523;SDS011;53350;52.210;5.160;2022-10-16T15:50:52;20.42;;;5.32;;
66523;SDS011;53350;52.210;5.160;2022-10-16T15:53:19;14.65;;;5.78;;
66523;SDS011;53350;52.210;5.160;2022-10-16T15:55:47;13.68;;;5.40;;
66523;SDS011;53350;52.210;5.160;2022-10-16T16:00:40;14.10;;;4.60;;
66523;SDS011;53350;52.210;5.160;2022-10-16T16:03:06;19.63;;;6.38;;
66523;SDS011;53350;52.210;5.160;2022-10-16T16:05:33;29.25;;;14.55;;
66523;SDS011;53350;52.210;5.160;2022-10-16T16:08:03;20.73;;;10.20;;
66523;SDS011;53350;52.210;5.160;2022-10-16T16:10:30;22.80;;;7.50;;
66523;SDS011;53350;52.210;5.160;2022-10-16T16:12:57;18.52;;;5.78;;
66523;SDS011;53350;52.210;5.160;2022-10-16T16:15:24;19.60;;;5.50;;
66523;SDS011;53350;52.210;5.160;2022-10-16T16:17:50;15.02;;;4.35;;
66523;SDS011;53350;52.210;5.160;2022-10-16T16:20:17;14.20;;;3.35;;